Time;durP1;ratioP1;P1;durP2;ratioP2;P2;SDS_P1;SDS_P2;PMS_P1;PMS_P2;Temp;Humidity;BMP_temperature;BMP_pressure;BME280_temperature;BME280_humidity;BME280_pressure;Samples;Min_cycle;Max_cycle;Signal;HPM_P1;HPM_P2
2023/09/16 00:01:41;;;;;;;10.00;5.65;;;13.30;99.90;;;;;;5026244;28;20018;-57
2023/09/16 00:04:08;;;;;;;8.20;5.63;;;13.30;99.90;;;;;;5030131;28;20051;-57
2023/09/16 00:06:34;;;;;;;8.30;5.75;;;13.20;99.90;;;;;;5028764;28;20018;-57
2023/09/16 00:08:59;;;;;;;11.18;5.88;;;13.20;99.90;;;;;;5030219;28;20086;-57
2023/09/16 00:11:25;;;;;;;7.57;4.93;;;13.20;99.90;;;;;;5027614;28;20030;-57
2023/09/16 00:13:51;;;;;;;8.40;5.28;;;13.00;99.90;;;;;;5030009;28;20426;-57
2023/09/16 00:16:16;;;;;;;8.18;5.68;;;13.00;99.90;;;;;;5028632;28;20527;-57
2023/09/16 00:18:42;;;;;;;8.23;6.10;;;12.90;99.90;;;;;;5030277;28;20055;-57
2023/09/16 00:21:08;;;;;;;8.15;5.97;;;12.90;99.90;;;;;;5022689;28;20395;-57
2023/09/16 00:23:33;;;;;;;7.50;5.88;;;12.90;99.90;;;;;;5029872;28;20018;-57
2023/09/16 00:25:59;;;;;;;8.88;5.97;;;12.80;99.90;;;;;;5028705;28;20060;-57
2023/09/16 00:28:27;;;;;;;10.75;6.45;;;12.80;99.90;;;;;;5028899;28;20033;-57
2023/09/16 00:30:53;;;;;;;13.30;5.72;;;12.80;99.90;;;;;;5026349;28;20029;-57
2023/09/16 00:33:18;;;;;;;8.52;6.82;;;12.70;99.90;;;;;;5029523;28;20166;-57
2023/09/16 00:35:44;;;;;;;10.77;6.38;;;12.70;99.90;;;;;;5029748;28;20033;-57
2023/09/16 00:38:10;;;;;;;7.47;5.70;;;12.70;99.90;;;;;;5029553;28;20159;-57
2023/09/16 00:40:36;;;;;;;7.25;5.65;;;12.70;99.90;;;;;;5028103;28;20040;-57
2023/09/16 00:43:02;;;;;;;8.25;5.57;;;12.70;99.90;;;;;;5014626;28;20034;-57
2023/09/16 00:45:28;;;;;;;7.43;5.32;;;12.60;99.90;;;;;;5029962;28;20107;-57
2023/09/16 00:47:54;;;;;;;6.90;5.80;;;12.70;99.90;;;;;;5029645;28;20483;-57
2023/09/16 00:50:19;;;;;;;12.43;5.90;;;12.60;99.90;;;;;;5028282;28;20395;-57
2023/09/16 00:52:49;;;;;;;7.57;5.82;;;12.60;99.90;;;;;;5023883;28;20073;-57
2023/09/16 00:55:16;;;;;;;6.97;5.43;;;12.60;99.90;;;;;;5029529;28;20112;-57
2023/09/16 00:57:46;;;;;;;6.72;5.53;;;12.50;99.90;;;;;;5029112;28;20029;-56
2023/09/16 01:00:12;;;;;;;9.13;5.65;;;12.60;99.90;;;;;;5029023;28;20021;-56
2023/09/16 01:02:37;;;;;;;8.65;6.35;;;12.60;99.90;;;;;;5021631;28;20034;-56
2023/09/16 01:05:05;;;;;;;7.28;5.70;;;12.60;99.90;;;;;;5029280;28;20025;-57
2023/09/16 01:07:31;;;;;;;7.70;6.47;;;12.60;99.90;;;;;;5029601;28;20024;-56
2023/09/16 01:09:57;;;;;;;7.88;5.70;;;12.60;99.90;;;;;;5020966;28;20022;-56
2023/09/16 01:12:22;;;;;;;9.23;5.82;;;12.60;99.90;;;;;;5043556;28;20022;-56
2023/09/16 01:14:48;;;;;;;8.88;6.10;;;12.70;99.90;;;;;;5022674;28;20033;-56
2023/09/16 01:17:33;;;;;;;8.18;6.00;;;12.60;99.90;;;;;;5044356;28;20118;-56
2023/09/16 01:20:11;;;;;;;9.20;6.85;;;12.60;99.90;;;;;;5021265;28;20100;-56
2023/09/16 01:22:39;;;;;;;7.72;5.80;;;12.60;99.90;;;;;;5027894;28;20410;-56
2023/09/16 01:25:05;;;;;;;7.18;5.80;;;12.50;99.90;;;;;;5027570;28;20102;-56
2023/09/16 01:27:31;;;;;;;7.15;5.97;;;12.50;99.90;;;;;;5036715;28;20107;-56
2023/09/16 01:29:57;;;;;;;7.10;5.70;;;12.50;99.90;;;;;;5027322;28;20025;-56
2023/09/16 01:32:31;;;;;;;7.50;6.07;;;12.50;99.90;;;;;;5028890;28;20029;-56
2023/09/16 01:35:00;;;;;;;8.25;5.88;;;12.50;99.90;;;;;;5022356;28;20040;-56
2023/09/16 01:37:27;;;;;;;8.10;5.85;;;12.40;99.90;;;;;;5044307;28;20037;-56
2023/09/16 01:39:56;;;;;;;8.70;6.43;;;12.40;99.90;;;;;;5028932;28;20133;-57
2023/09/16 01:42:22;;;;;;;7.88;6.22;;;12.40;99.90;;;;;;5028737;28;20043;-56
2023/09/16 01:44:51;;;;;;;9.45;7.03;;;12.40;99.90;;;;;;5025529;28;20645;-57
2023/09/16 01:47:17;;;;;;;7.45;5.63;;;12.40;99.90;;;;;;5044180;28;20083;-56
2023/09/16 01:49:43;;;;;;;10.85;7.32;;;12.40;99.90;;;;;;5028443;28;20029;-57
2023/09/16 01:52:08;;;;;;;10.35;6.32;;;12.40;99.90;;;;;;5028509;28;20095;-56
2023/09/16 01:54:34;;;;;;;12.07;7.45;;;12.40;99.90;;;;;;5028074;28;20453;-57
2023/09/16 01:57:00;;;;;;;10.68;7.20;;;12.40;99.90;;;;;;5021851;28;20029;-56
2023/09/16 01:59:26;;;;;;;9.75;7.25;;;12.40;99.90;;;;;;5028619;28;20502;-57
2023/09/16 02:01:51;;;;;;;11.13;7.97;;;12.50;99.90;;;;;;5022722;28;20087;-56
2023/09/16 02:04:17;;;;;;;7.82;6.78;;;12.50;99.90;;;;;;5046992;28;20028;-56
2023/09/16 02:06:46;;;;;;;11.25;8.40;;;12.50;99.90;;;;;;5028610;28;20037;-57
2023/09/16 02:09:12;;;;;;;12.60;8.27;;;12.50;99.90;;;;;;5032449;28;20025;-56
2023/09/16 02:11:38;;;;;;;10.50;7.60;;;12.50;99.90;;;;;;5046880;28;20410;-56
2023/09/16 02:14:04;;;;;;;9.82;7.40;;;12.50;99.90;;;;;;5032109;28;20034;-56
2023/09/16 02:16:30;;;;;;;9.10;6.90;;;12.40;99.90;;;;;;5030898;28;20037;-56
2023/09/16 02:18:56;;;;;;;11.48;8.25;;;12.40;99.90;;;;;;5031021;28;20026;-56
2023/09/16 02:21:22;;;;;;;12.18;8.07;;;12.40;99.90;;;;;;5027284;28;20025;-56
2023/09/16 02:23:48;;;;;;;9.57;7.63;;;12.40;99.90;;;;;;5032282;28;20386;-56
2023/09/16 02:26:13;;;;;;;11.13;7.55;;;12.40;99.90;;;;;;5028786;28;20032;-56
2023/09/16 02:28:40;;;;;;;13.88;7.85;;;12.30;99.90;;;;;;5029659;28;20026;-56
2023/09/16 02:31:06;;;;;;;9.13;7.60;;;12.30;99.90;;;;;;5031466;28;20075;-57
2023/09/16 02:33:32;;;;;;;9.88;8.07;;;12.30;99.90;;;;;;5031590;28;20010;-56
2023/09/16 02:35:57;;;;;;;9.25;7.47;;;12.30;99.90;;;;;;5031040;28;20029;-56
2023/09/16 02:38:23;;;;;;;9.18;7.47;;;12.30;99.90;;;;;;5045940;28;20488;-56
2023/09/16 02:40:48;;;;;;;13.50;8.70;;;12.30;99.90;;;;;;5029735;28;20265;-57
2023/09/16 02:43:14;;;;;;;10.35;7.65;;;12.30;99.90;;;;;;5026743;28;20067;-57
2023/09/16 02:45:41;;;;;;;9.38;8.23;;;12.30;99.90;;;;;;5031594;28;20029;-57
2023/09/16 02:48:07;;;;;;;10.50;8.77;;;12.30;99.90;;;;;;5025039;28;20029;-56
2023/09/16 02:50:39;;;;;;;13.07;10.00;;;12.30;99.90;;;;;;5023906;28;20031;-57
2023/09/16 02:53:05;;;;;;;12.13;9.63;;;12.30;99.90;;;;;;5021745;28;20088;-57
2023/09/16 02:55:34;;;;;;;13.05;8.32;;;12.30;99.90;;;;;;5014619;28;20296;-57
2023/09/16 02:57:59;;;;;;;9.70;7.70;;;12.30;99.90;;;;;;5017799;28;20415;-56
2023/09/16 03:00:25;;;;;;;13.77;9.48;;;12.30;99.90;;;;;;5013925;28;20029;-56
2023/09/16 03:02:52;;;;;;;13.20;9.85;;;12.30;99.90;;;;;;5027640;28;20021;-56
2023/09/16 03:05:17;;;;;;;10.10;8.65;;;12.40;99.90;;;;;;5036342;28;20075;-56
2023/09/16 03:07:46;;;;;;;11.50;9.77;;;12.30;99.90;;;;;;5016775;28;20046;-56
2023/09/16 03:10:12;;;;;;;13.43;8.75;;;12.30;99.90;;;;;;5013534;28;20041;-56
2023/09/16 03:12:37;;;;;;;14.20;8.52;;;12.30;99.90;;;;;;5014193;28;20507;-56
2023/09/16 03:15:03;;;;;;;10.57;8.52;;;12.20;99.90;;;;;;5012934;28;20430;-56
2023/09/16 03:17:29;;;;;;;9.32;8.20;;;12.20;99.90;;;;;;5014332;28;20026;-56
2023/09/16 03:19:55;;;;;;;11.57;8.30;;;12.20;99.90;;;;;;5018520;28;20440;-56
2023/09/16 03:22:20;;;;;;;11.15;8.50;;;12.20;99.90;;;;;;5014415;28;20384;-57
2023/09/16 03:24:46;;;;;;;10.05;8.18;;;12.10;99.90;;;;;;5015867;28;20369;-56
2023/09/16 03:27:12;;;;;;;10.18;7.68;;;12.10;99.90;;;;;;5016730;28;20115;-57
2023/09/16 03:29:38;;;;;;;11.82;9.52;;;12.10;99.90;;;;;;5023114;28;20036;-57
2023/09/16 03:32:04;;;;;;;11.93;8.35;;;12.10;99.90;;;;;;5020761;28;20312;-57
2023/09/16 03:34:29;;;;;;;12.63;9.13;;;12.00;99.90;;;;;;5020431;28;20049;-57
2023/09/16 03:36:55;;;;;;;11.18;8.85;;;12.00;99.90;;;;;;5014280;28;20390;-57
2023/09/16 03:39:20;;;;;;;11.80;9.45;;;12.00;99.90;;;;;;5020792;28;20044;-57
2023/09/16 03:41:46;;;;;;;14.90;10.38;;;12.00;99.90;;;;;;5016447;28;20018;-57
2023/09/16 03:44:12;;;;;;;13.82;9.82;;;12.00;99.90;;;;;;5014343;28;20067;-56
2023/09/16 03:46:39;;;;;;;11.07;8.75;;;12.00;99.90;;;;;;5015502;28;20013;-56
2023/09/16 03:49:05;;;;;;;11.63;8.68;;;12.00;99.90;;;;;;5013779;28;20113;-57
2023/09/16 03:51:33;;;;;;;11.07;9.30;;;12.00;99.90;;;;;;5035306;28;20065;-59
2023/09/16 03:53:58;;;;;;;10.55;8.70;;;11.90;99.90;;;;;;5022033;28;20014;-57
2023/09/16 03:56:24;;;;;;;11.25;9.20;;;11.90;99.90;;;;;;5014263;28;20033;-58
2023/09/16 03:58:50;;;;;;;10.88;8.75;;;11.80;99.90;;;;;;5016196;28;20380;-57
2023/09/16 04:01:15;;;;;;;11.93;9.73;;;11.80;99.90;;;;;;5016745;28;20022;-57
2023/09/16 04:03:42;;;;;;;17.73;9.90;;;11.80;99.90;;;;;;5015655;28;20022;-57
2023/09/16 04:06:07;;;;;;;10.57;8.75;;;11.80;99.90;;;;;;5015044;28;20018;-57
2023/09/16 04:08:33;;;;;;;14.00;10.25;;;11.80;99.90;;;;;;5014273;28;20092;-57
2023/09/16 04:10:58;;;;;;;11.48;9.60;;;11.80;99.90;;;;;;5017232;28;20030;-57
2023/09/16 04:13:24;;;;;;;11.07;9.00;;;11.80;99.90;;;;;;5018472;28;20125;-56
2023/09/16 04:15:50;;;;;;;15.90;10.43;;;11.70;99.90;;;;;;5014570;28;20033;-57
2023/09/16 04:18:16;;;;;;;11.35;8.82;;;11.70;99.90;;;;;;5018251;28;20029;-57
2023/09/16 04:20:42;;;;;;;11.60;9.10;;;11.70;99.90;;;;;;5021549;28;20047;-57
2023/09/16 04:23:08;;;;;;;14.95;11.18;;;11.60;99.90;;;;;;5020212;28;20021;-57
2023/09/16 04:25:35;;;;;;;11.23;9.13;;;11.70;99.90;;;;;;5014983;28;20044;-58
2023/09/16 04:28:02;;;;;;;13.43;9.48;;;11.60;99.90;;;;;;5021043;28;20391;-57
2023/09/16 04:30:27;;;;;;;13.38;10.15;;;11.60;99.90;;;;;;5014604;28;20028;-57
2023/09/16 04:32:53;;;;;;;14.38;11.48;;;11.60;99.90;;;;;;5017925;28;20413;-57
2023/09/16 04:35:19;;;;;;;18.00;12.25;;;11.70;99.90;;;;;;5019476;28;20030;-57
2023/09/16 04:37:44;;;;;;;16.23;11.93;;;11.70;99.90;;;;;;5022208;28;20419;-57
2023/09/16 04:40:11;;;;;;;16.13;12.00;;;11.70;99.90;;;;;;5017478;28;20490;-57
2023/09/16 04:42:37;;;;;;;16.23;13.13;;;11.70;99.90;;;;;;5020321;28;20029;-57
2023/09/16 04:45:04;;;;;;;20.90;13.85;;;11.80;99.90;;;;;;5026022;28;20455;-57
2023/09/16 04:47:29;;;;;;;22.02;14.77;;;11.90;99.90;;;;;;5019875;28;20415;-57
2023/09/16 04:49:55;;;;;;;21.25;13.55;;;11.90;99.90;;;;;;5015803;28;20033;-57
2023/09/16 04:52:22;;;;;;;19.42;13.57;;;11.90;99.90;;;;;;5016400;28;20471;-58
2023/09/16 04:54:50;;;;;;;18.77;15.27;;;12.00;99.90;;;;;;5016531;28;20029;-57
2023/09/16 04:57:16;;;;;;;19.58;14.43;;;12.00;99.90;;;;;;5014324;28;20029;-57
2023/09/16 04:59:43;;;;;;;19.90;14.10;;;12.00;99.90;;;;;;5016086;28;20045;-57
2023/09/16 05:02:08;;;;;;;17.58;13.55;;;12.00;99.90;;;;;;5013095;28;20026;-57
2023/09/16 05:04:34;;;;;;;19.83;15.00;;;12.00;99.90;;;;;;5014646;28;20033;-57
2023/09/16 05:06:59;;;;;;;16.23;13.30;;;12.00;99.90;;;;;;5016311;28;20030;-57
2023/09/16 05:09:25;;;;;;;17.70;13.25;;;12.00;99.90;;;;;;5014462;28;20460;-57
2023/09/16 05:11:50;;;;;;;17.40;13.88;;;12.00;99.90;;;;;;5027556;28;20079;-57
2023/09/16 05:14:16;;;;;;;23.48;14.88;;;12.00;99.90;;;;;;5017343;28;20057;-57
2023/09/16 05:16:41;;;;;;;16.98;13.15;;;12.10;99.90;;;;;;5015996;28;20054;-57
2023/09/16 05:19:07;;;;;;;17.83;13.65;;;12.10;99.90;;;;;;5015441;28;20022;-57
2023/09/16 05:21:32;;;;;;;17.77;14.23;;;12.00;99.90;;;;;;5014823;28;20014;-57
2023/09/16 05:23:58;;;;;;;21.67;14.05;;;12.00;99.90;;;;;;5014195;28;20033;-57
2023/09/16 05:26:23;;;;;;;16.85;13.60;;;12.00;99.90;;;;;;5019448;28;20017;-57
2023/09/16 05:28:50;;;;;;;17.05;14.02;;;12.00;99.90;;;;;;5023558;28;20109;-57
2023/09/16 05:31:16;;;;;;;20.75;14.88;;;12.10;99.90;;;;;;5014482;28;20014;-56
2023/09/16 05:33:41;;;;;;;20.52;14.38;;;12.10;99.90;;;;;;5030697;28;20109;-56
2023/09/16 05:36:07;;;;;;;17.02;13.63;;;12.10;99.90;;;;;;5017385;28;20040;-56
2023/09/16 05:38:33;;;;;;;18.17;14.38;;;12.10;99.90;;;;;;5022175;28;20025;-56
2023/09/16 05:40:59;;;;;;;16.23;13.30;;;12.10;99.90;;;;;;5019080;28;20092;-56
2023/09/16 05:43:25;;;;;;;20.33;14.30;;;12.20;99.90;;;;;;5020431;28;20333;-56
2023/09/16 05:45:51;;;;;;;16.77;13.68;;;12.20;99.90;;;;;;5023035;28;20014;-56
2023/09/16 05:48:17;;;;;;;19.23;15.40;;;12.20;99.90;;;;;;5030644;28;20467;-56
2023/09/16 05:50:43;;;;;;;16.70;13.60;;;12.20;99.90;;;;;;5034897;28;20130;-56
2023/09/16 05:53:08;;;;;;;17.48;13.27;;;12.20;99.90;;;;;;5021105;28;20113;-56
2023/09/16 05:55:40;;;;;;;16.45;12.52;;;12.20;99.90;;;;;;5021774;28;20026;-56
2023/09/16 05:58:11;;;;;;;18.35;13.35;;;12.30;99.90;;;;;;5020693;28;20095;-56
2023/09/16 06:00:36;;;;;;;;;;;12.30;99.90;;;;;;5020613;28;20041;-56
2023/09/16 06:03:02;;;;;;;17.80;12.93;;;12.30;99.90;;;;;;5024552;28;19951;-56
2023/09/16 06:05:29;;;;;;;20.00;13.23;;;12.30;99.90;;;;;;5021371;28;20474;-56
2023/09/16 06:07:54;;;;;;;15.98;11.98;;;12.40;99.90;;;;;;5019989;28;20032;-57
2023/09/16 06:10:20;;;;;;;14.75;13.18;;;12.40;99.90;;;;;;5020924;28;20029;-57
2023/09/16 06:12:46;;;;;;;18.25;13.50;;;12.40;99.90;;;;;;5018986;28;20017;-57
2023/09/16 06:15:12;;;;;;;14.15;12.23;;;12.40;99.90;;;;;;5022544;28;20018;-56
2023/09/16 06:17:37;;;;;;;18.15;13.40;;;12.50;99.90;;;;;;5020255;28;20041;-57
2023/09/16 06:20:03;;;;;;;21.30;14.88;;;12.50;99.90;;;;;;5018474;28;20021;-57
2023/09/16 06:22:29;;;;;;;16.48;12.88;;;12.60;99.90;;;;;;5020202;28;20032;-56
2023/09/16 06:24:54;;;;;;;16.48;13.10;;;12.60;99.90;;;;;;5019715;28;20014;-56
2023/09/16 06:27:20;;;;;;;21.58;13.73;;;12.70;99.90;;;;;;5033303;28;20021;-56
2023/09/16 06:29:46;;;;;;;15.00;12.02;;;12.70;99.90;;;;;;5022593;28;20029;-56
2023/09/16 06:32:13;;;;;;;14.85;12.25;;;12.70;99.90;;;;;;5020197;28;20045;-56
2023/09/16 06:34:39;;;;;;;14.65;12.18;;;12.80;99.90;;;;;;5020290;28;20029;-56
2023/09/16 06:37:07;;;;;;;16.40;12.75;;;12.80;99.90;;;;;;5019402;28;20450;-57
2023/09/16 06:39:33;;;;;;;14.50;11.90;;;12.90;99.90;;;;;;5021680;28;20017;-55
2023/09/16 06:41:59;;;;;;;15.70;12.35;;;13.00;99.90;;;;;;5019988;28;20025;-57
2023/09/16 06:44:24;;;;;;;17.23;13.80;;;13.10;99.90;;;;;;5019554;28;20226;-57
2023/09/16 06:46:49;;;;;;;16.27;13.05;;;13.10;99.90;;;;;;5024921;28;20483;-57
2023/09/16 06:49:17;;;;;;;13.80;12.07;;;13.20;99.90;;;;;;5021152;28;20079;-56
2023/09/16 06:51:43;;;;;;;16.83;13.02;;;13.20;99.90;;;;;;5035596;28;20022;-56
2023/09/16 06:54:08;;;;;;;15.15;12.32;;;13.30;99.90;;;;;;5019525;28;20113;-56
2023/09/16 06:56:34;;;;;;;16.05;12.43;;;13.30;99.90;;;;;;5019825;28;20028;-56
2023/09/16 06:59:01;;;;;;;14.45;11.68;;;13.40;99.90;;;;;;5021073;28;20034;-56
2023/09/16 07:01:27;;;;;;;12.60;10.73;;;13.50;99.90;;;;;;5023422;28;20483;-56
2023/09/16 07:03:52;;;;;;;12.20;10.88;;;13.60;99.90;;;;;;5016475;28;20036;-56
2023/09/16 07:06:18;;;;;;;12.82;10.52;;;13.60;99.90;;;;;;5024096;28;20025;-56
2023/09/16 07:08:43;;;;;;;12.65;10.30;;;13.70;99.90;;;;;;5018401;28;20044;-56
2023/09/16 07:11:11;;;;;;;12.23;10.70;;;13.80;99.90;;;;;;5022751;28;20542;-57
2023/09/16 07:13:36;;;;;;;13.80;11.32;;;13.80;99.90;;;;;;5015462;28;20029;-57
2023/09/16 07:16:02;;;;;;;22.67;17.00;;;13.90;99.90;;;;;;5026790;28;20026;-57
2023/09/16 07:18:28;;;;;;;21.80;17.08;;;14.20;99.90;;;;;;5017778;28;20041;-56
2023/09/16 07:20:53;;;;;;;16.83;13.35;;;14.30;99.90;;;;;;5021493;28;20025;-56
2023/09/16 07:23:19;;;;;;;17.98;14.73;;;14.50;99.90;;;;;;5023333;28;20026;-57
2023/09/16 07:25:57;;;;;;;15.07;13.35;;;14.70;99.90;;;;;;5022442;28;20028;-56
2023/09/16 07:28:24;;;;;;;13.73;11.40;;;14.80;99.90;;;;;;5015575;28;20037;-56
2023/09/16 07:30:50;;;;;;;13.90;10.50;;;14.90;99.90;;;;;;5025258;28;20041;-56
2023/09/16 07:33:16;;;;;;;19.40;13.30;;;15.00;99.90;;;;;;5020057;28;20360;-56
2023/09/16 07:35:41;;;;;;;15.15;12.30;;;15.10;99.90;;;;;;5024887;28;20045;-56
2023/09/16 07:38:08;;;;;;;15.27;12.02;;;15.20;99.90;;;;;;5021147;28;20041;-56
2023/09/16 07:40:35;;;;;;;15.60;10.98;;;15.30;99.90;;;;;;5021001;28;20068;-56
2023/09/16 07:43:01;;;;;;;12.68;10.20;;;15.40;99.90;;;;;;5020959;28;20025;-56
2023/09/16 07:45:27;;;;;;;11.25;10.05;;;15.60;99.90;;;;;;5021704;28;20584;-57
2023/09/16 07:47:53;;;;;;;13.95;10.77;;;15.70;99.90;;;;;;5033568;28;20124;-56
2023/09/16 07:50:18;;;;;;;15.95;9.68;;;16.00;99.90;;;;;;5019730;28;20036;-57
2023/09/16 07:52:44;;;;;;;9.88;8.80;;;16.00;99.90;;;;;;5019478;28;20034;-56
2023/09/16 07:55:09;;;;;;;10.80;8.88;;;16.10;99.90;;;;;;5022707;28;20529;-56
2023/09/16 07:57:35;;;;;;;11.45;8.73;;;16.20;99.90;;;;;;5017569;28;20101;-57
2023/09/16 08:00:00;;;;;;;8.20;7.40;;;16.40;99.90;;;;;;5018963;28;20030;-57
2023/09/16 08:02:26;;;;;;;9.13;7.55;;;16.50;99.90;;;;;;5017368;28;20487;-57
2023/09/16 08:04:51;;;;;;;10.82;7.03;;;16.70;99.90;;;;;;5018885;28;20028;-57
2023/09/16 08:07:17;;;;;;;8.93;6.45;;;17.10;99.90;;;;;;5018725;28;20025;-57
2023/09/16 08:09:43;;;;;;;9.20;6.65;;;17.60;99.90;;;;;;5019236;28;20037;-57
2023/09/16 08:12:08;;;;;;;6.72;5.38;;;18.00;99.90;;;;;;5018798;28;20042;-57
2023/09/16 08:14:34;;;;;;;8.07;6.53;;;18.50;99.90;;;;;;5020169;28;20032;-57
2023/09/16 08:17:03;;;;;;;8.82;5.40;;;19.10;99.90;;;;;;5026186;28;20044;-57
2023/09/16 08:19:32;;;;;;;7.70;4.60;;;19.80;99.90;;;;;;5018250;28;20050;-57
2023/09/16 08:21:58;;;;;;;5.43;4.45;;;20.90;99.90;;;;;;5014963;28;20170;-58
2023/09/16 08:24:24;;;;;;;5.57;4.30;;;22.60;99.90;;;;;;5022597;28;20030;-57
2023/09/16 08:26:49;;;;;;;4.72;3.78;;;24.20;99.90;;;;;;5026295;28;20029;-58
2023/09/16 08:29:14;;;;;;;3.75;3.38;;;25.80;98.80;;;;;;5020916;28;20029;-58
2023/09/16 08:31:40;;;;;;;4.90;3.70;;;27.30;94.70;;;;;;5022995;28;20029;-58
2023/09/16 08:34:05;;;;;;;5.78;3.78;;;28.90;90.70;;;;;;5021834;28;20041;-58
2023/09/16 08:36:31;;;;;;;5.05;4.10;;;30.10;88.00;;;;;;5019353;28;20062;-59
2023/09/16 08:38:57;;;;;;;6.53;3.17;;;31.00;81.50;;;;;;5022561;28;20030;-58
2023/09/16 08:41:39;;;;;;;3.13;2.80;;;31.40;81.30;;;;;;5026608;28;20513;-59
2023/09/16 08:44:08;;;;;;;3.78;3.08;;;32.10;77.90;;;;;;5025396;28;20548;-58
2023/09/16 08:46:39;;;;;;;7.10;3.10;;;32.80;73.20;;;;;;5025580;28;20025;-58
2023/09/16 08:49:08;;;;;;;3.55;3.15;;;32.90;72.90;;;;;;5020758;28;20033;-58
2023/09/16 08:51:38;;;;;;;5.20;3.10;;;33.30;72.20;;;;;;5031489;28;20484;-59
2023/09/16 08:54:06;;;;;;;3.47;3.17;;;33.30;69.50;;;;;;5032917;28;20112;-59
2023/09/16 08:56:33;;;;;;;4.53;2.83;;;34.00;69.40;;;;;;5028835;28;20036;-59
2023/09/16 08:58:59;;;;;;;5.00;3.13;;;34.30;67.70;;;;;;5039187;28;20075;-59
2023/09/16 09:01:25;;;;;;;3.13;2.83;;;34.90;66.70;;;;;;5029841;28;20104;-58
2023/09/16 09:03:50;;;;;;;3.55;2.97;;;35.00;66.10;;;;;;5034082;28;20047;-59
2023/09/16 09:06:17;;;;;;;5.05;2.85;;;34.80;65.80;;;;;;5027502;28;20502;-59
2023/09/16 09:08:43;;;;;;;3.20;2.90;;;35.40;64.40;;;;;;5026654;28;20013;-59
2023/09/16 09:11:12;;;;;;;3.80;2.80;;;35.20;64.20;;;;;;5019854;28;20034;-58
2023/09/16 09:13:40;;;;;;;4.05;2.85;;;35.30;63.60;;;;;;5021329;28;20012;-58
2023/09/16 09:16:06;;;;;;;5.82;2.92;;;35.10;64.00;;;;;;5018189;28;20033;-58
2023/09/16 09:18:35;;;;;;;3.10;2.58;;;35.30;63.20;;;;;;5017783;28;20104;-59
2023/09/16 09:21:02;;;;;;;3.72;2.72;;;35.90;61.90;;;;;;5016783;28;20044;-59
2023/09/16 09:23:31;;;;;;;4.57;2.75;;;36.30;60.30;;;;;;5016551;28;20037;-58
2023/09/16 09:25:57;;;;;;;3.60;2.65;;;36.30;62.20;;;;;;5018798;28;20014;-59
2023/09/16 09:28:22;;;;;;;4.03;2.95;;;36.60;59.50;;;;;;5019829;28;20060;-59
2023/09/16 09:30:49;;;;;;;3.78;2.83;;;36.50;62.40;;;;;;5019281;28;20503;-59
2023/09/16 09:33:18;;;;;;;4.10;3.10;;;37.30;59.00;;;;;;5017539;28;20104;-59
2023/09/16 09:35:44;;;;;;;4.43;2.80;;;37.20;57.20;;;;;;5020564;28;20117;-59
2023/09/16 09:38:10;;;;;;;4.63;3.03;;;37.30;57.30;;;;;;5022265;28;20117;-59
2023/09/16 09:40:35;;;;;;;3.10;2.80;;;37.20;56.70;;;;;;5018025;28;20026;-59
2023/09/16 09:43:01;;;;;;;5.40;2.50;;;36.60;56.40;;;;;;5023377;28;20037;-59
2023/09/16 09:45:28;;;;;;;3.05;2.58;;;37.20;57.10;;;;;;5016327;28;20079;-59
2023/09/16 09:47:55;;;;;;;4.18;2.58;;;37.10;58.80;;;;;;5017412;28;20104;-59
2023/09/16 09:50:22;;;;;;;4.88;2.92;;;37.00;59.80;;;;;;5036869;28;20464;-59
2023/09/16 09:52:53;;;;;;;8.85;2.90;;;37.40;57.10;;;;;;5032691;28;20025;-59
2023/09/16 09:55:20;;;;;;;3.80;2.63;;;37.50;56.20;;;;;;5020783;28;20465;-59
2023/09/16 09:57:48;;;;;;;4.10;2.80;;;37.10;58.00;;;;;;5024880;28;20049;-59
2023/09/16 10:00:16;;;;;;;2.90;2.60;;;37.00;56.10;;;;;;5036593;28;20099;-59
2023/09/16 10:02:42;;;;;;;3.28;2.55;;;37.00;54.70;;;;;;5022042;28;20037;-59
2023/09/16 10:05:13;;;;;;;2.85;2.15;;;37.10;55.10;;;;;;5017611;28;20018;-59
2023/09/16 10:07:42;;;;;;;3.03;2.72;;;37.80;55.80;;;;;;5016786;28;20034;-59
2023/09/16 10:10:16;;;;;;;3.60;2.50;;;37.50;56.40;;;;;;5015516;28;20033;-59
2023/09/16 10:12:44;;;;;;;3.85;2.45;;;37.90;56.10;;;;;;5016871;28;20137;-59
2023/09/16 10:15:10;;;;;;;4.30;2.88;;;37.10;56.60;;;;;;5025757;28;20024;-59
2023/09/16 10:17:37;;;;;;;3.22;2.63;;;36.80;57.80;;;;;;5021847;28;20026;-59
2023/09/16 10:20:02;;;;;;;2.50;2.30;;;36.60;57.10;;;;;;5020176;28;20526;-59
2023/09/16 10:22:29;;;;;;;3.08;2.42;;;36.70;56.30;;;;;;5025881;28;20025;-59
2023/09/16 10:24:55;;;;;;;3.25;2.78;;;37.00;55.50;;;;;;5029654;28;20021;-59
2023/09/16 10:27:24;;;;;;;3.45;2.60;;;37.60;56.00;;;;;;5027286;28;20082;-59
2023/09/16 10:29:51;;;;;;;;;;;37.70;55.60;;;;;;5021324;28;20093;-59
2023/09/16 10:32:17;;;;;;;3.45;2.67;;;37.60;55.80;;;;;;5026274;28;20286;-59
2023/09/16 10:34:45;;;;;;;4.72;2.83;;;38.10;54.40;;;;;;5023053;28;20553;-59
2023/09/16 10:37:12;;;;;;;3.65;2.75;;;38.10;54.40;;;;;;5028212;28;20029;-59
2023/09/16 10:39:39;;;;;;;8.13;3.22;;;37.80;55.00;;;;;;5028492;28;20021;-59
2023/09/16 10:42:06;;;;;;;3.03;2.50;;;37.50;54.20;;;;;;5030083;28;20495;-59
2023/09/16 10:44:32;;;;;;;3.40;3.10;;;37.80;55.80;;;;;;5024554;28;20032;-59
2023/09/16 10:46:59;;;;;;;2.85;2.53;;;37.40;56.40;;;;;;5027631;28;20487;-59
2023/09/16 10:49:25;;;;;;;6.38;3.05;;;37.60;54.70;;;;;;5022462;28;20053;-59
2023/09/16 10:51:52;;;;;;;3.10;2.78;;;37.40;55.70;;;;;;5024841;28;20061;-59
2023/09/16 10:54:24;;;;;;;2.88;2.50;;;36.80;57.20;;;;;;5026409;28;20108;-59
2023/09/16 10:56:52;;;;;;;3.30;3.00;;;37.60;56.10;;;;;;5023237;28;20033;-59
2023/09/16 10:59:21;;;;;;;4.05;3.20;;;37.60;56.80;;;;;;5025854;28;20071;-59
2023/09/16 11:01:47;;;;;;;3.33;3.10;;;37.40;56.20;;;;;;5035841;28;20028;-59
2023/09/16 11:04:18;;;;;;;3.88;2.85;;;37.30;57.90;;;;;;5022762;28;20026;-59
2023/09/16 11:06:48;;;;;;;3.67;2.80;;;37.30;54.70;;;;;;5023538;28;20448;-59
2023/09/16 11:09:14;;;;;;;3.85;2.33;;;37.00;57.60;;;;;;5023759;28;20025;-59
2023/09/16 11:11:40;;;;;;;3.47;3.17;;;37.20;54.90;;;;;;5019869;28;20034;-59
2023/09/16 11:14:08;;;;;;;4.57;2.38;;;38.20;52.70;;;;;;5023881;28;20037;-59
2023/09/16 11:16:48;;;;;;;6.43;3.03;;;37.40;55.10;;;;;;5022957;28;20032;-59
2023/09/16 11:19:15;;;;;;;2.88;2.50;;;38.00;54.10;;;;;;5020840;28;20319;-59
2023/09/16 11:21:42;;;;;;;3.33;2.78;;;38.00;54.80;;;;;;5035718;28;20030;-59
2023/09/16 11:24:08;;;;;;;3.13;2.75;;;38.50;54.70;;;;;;5020780;28;20547;-59
2023/09/16 11:26:37;;;;;;;3.33;3.03;;;38.30;54.20;;;;;;5025225;28;20122;-59
2023/09/16 11:29:32;;;;;;;5.40;3.25;;;38.00;55.20;;;;;;5027228;28;20087;-59
2023/09/16 11:32:00;;;;;;;4.75;3.08;;;37.80;54.40;;;;;;5019373;28;20037;-59
2023/09/16 11:34:27;;;;;;;3.65;2.60;;;37.50;56.00;;;;;;5022071;28;20025;-59
2023/09/16 11:36:55;;;;;;;2.67;2.42;;;38.10;54.90;;;;;;5021980;28;20124;-59
2023/09/16 11:39:40;;;;;;;2.72;2.17;;;38.40;55.60;;;;;;5026492;28;20033;-59
2023/09/16 11:42:07;;;;;;;2.75;2.42;;;38.60;51.00;;;;;;5015273;28;20066;-59
2023/09/16 11:44:37;;;;;;;3.13;2.72;;;38.60;52.90;;;;;;5022870;28;20022;-59
2023/09/16 11:47:03;;;;;;;3.00;2.70;;;38.80;51.80;;;;;;5023411;28;20117;-59
2023/09/16 11:49:35;;;;;;;2.90;2.65;;;38.70;54.10;;;;;;5017436;28;20088;-58
2023/09/16 11:52:04;;;;;;;3.40;2.97;;;38.90;52.10;;;;;;5019177;28;20026;-58
2023/09/16 11:54:29;;;;;;;4.63;2.65;;;38.50;53.00;;;;;;5022296;28;20033;-59
2023/09/16 11:56:57;;;;;;;7.15;2.92;;;38.70;53.00;;;;;;5027083;28;20045;-58
2023/09/16 11:59:24;;;;;;;3.10;2.53;;;38.00;54.00;;;;;;5025504;28;20045;-58
2023/09/16 12:01:49;;;;;;;4.60;2.65;;;38.20;54.40;;;;;;5025789;28;20018;-58
2023/09/16 12:04:17;;;;;;;2.78;2.50;;;37.50;52.60;;;;;;5022636;28;20021;-58
2023/09/16 12:06:44;;;;;;;3.03;2.35;;;37.40;53.10;;;;;;5020997;28;20109;-59
2023/09/16 12:09:19;;;;;;;2.83;2.42;;;37.10;53.60;;;;;;5020536;28;20075;-58
2023/09/16 12:11:49;;;;;;;3.65;2.80;;;36.30;53.20;;;;;;5019448;28;20010;-58
2023/09/16 12:14:14;;;;;;;4.30;3.00;;;36.10;55.90;;;;;;5024952;28;20025;-57
2023/09/16 12:16:41;;;;;;;3.78;2.80;;;35.30;54.50;;;;;;5027153;28;20026;-58
2023/09/16 12:19:08;;;;;;;4.05;3.13;;;34.80;58.20;;;;;;5025026;28;20030;-59
2023/09/16 12:21:34;;;;;;;7.53;3.03;;;34.40;58.40;;;;;;5015847;28;20077;-58
2023/09/16 12:23:59;;;;;;;3.83;3.13;;;34.20;56.40;;;;;;5027248;28;20036;-58
2023/09/16 12:26:25;;;;;;;5.22;3.45;;;33.80;56.20;;;;;;5027595;28;20383;-58
2023/09/16 12:28:51;;;;;;;6.82;3.00;;;33.10;57.00;;;;;;5027607;28;20042;-58
2023/09/16 12:31:23;;;;;;;3.30;2.78;;;32.90;60.30;;;;;;5026926;28;20431;-58
2023/09/16 12:33:53;;;;;;;4.80;3.10;;;32.70;61.10;;;;;;5027968;28;20129;-58
2023/09/16 12:36:28;;;;;;;5.05;2.97;;;32.30;61.00;;;;;;5027154;28;20222;-57
2023/09/16 12:38:58;;;;;;;4.03;2.97;;;32.10;62.50;;;;;;5022275;28;20069;-57